This is the latest recevied weather packets stored in our database for station/object KK4WXG. If no packets are shown the sender has not sent any weather packets the latest 10 day(s).
| Time | Temp. | Humidity | Pressure | Rain* | Wind** | Luminosity | Snow |
|---|---|---|---|---|---|---|---|
| 1777761849 | 12.78° C | 41% | 1012.2 hPa | 0 mm | - | 137 W/m² | - |
| 1777761546 | 12.78° C | 42% | 1011.9 hPa | 0 mm | - | 149 W/m² | - |
| 1777761244 | 13.33° C | 43% | 1012.1 hPa | 0 mm | - | 179 W/m² | - |
| 1777760942 | 13.33° C | 46% | 1011.9 hPa | 0 mm | - | 190 W/m² | - |
| 1777760639 | 13.33° C | 43% | 1011.9 hPa | 0 mm | - | 191 W/m² | - |
| 1777760334 | 13.33° C | 44% | 1012.1 hPa | 0 mm | - | 190 W/m² | - |
| 1777760032 | 13.33° C | 43% | 1011.9 hPa | 0 mm | - | 217 W/m² | - |
| 1777759729 | 13.33° C | 42% | 1011.9 hPa | 0 mm | - | 223 W/m² | - |
| 1777759424 | 13.33° C | 40% | 1011.9 hPa | 0 mm | - | 185 W/m² | - |
| 1777759121 | 13.33° C | 44% | 1011.9 hPa | 0 mm | - | 167 W/m² | - |
| 1777758819 | 13.33° C | 44% | 1011.9 hPa | 0 mm | - | 145 W/m² | - |
| 1777758515 | 13.33° C | 44% | 1011.8 hPa | 0 mm | - | 175 W/m² | - |
| 1777758212 | 13.89° C | 40% | 1011.7 hPa | 0 mm | - | 192 W/m² | - |
| 1777757909 | 14.44° C | 41% | 1012.1 hPa | 0 mm | - | 270 W/m² | - |
| 1777757606 | 14.44° C | 41% | 1011.7 hPa | 0 mm | - | 515 W/m² | - |
| 1777757305 | 13.33° C | 45% | 1011.7 hPa | 0 mm | - | 395 W/m² | - |
| 1777757003 | 13.33° C | 42% | 1011.9 hPa | 0 mm | - | 199 W/m² | - |
| 1777756700 | 13.33° C | 42% | 1011.9 hPa | 0 mm | - | 197 W/m² | - |
| 1777756401 | 13.89° C | 41% | 1011.9 hPa | 0 mm | - | 256 W/m² | - |
| 1777756099 | 13.89° C | 42% | 1011.8 hPa | 0 mm | - | 403 W/m² | - |
| 1777755796 | 13.89° C | 44% | 1011.8 hPa | 0 mm | - | 282 W/m² | - |
| 1777755493 | 14.44° C | 41% | 1011.6 hPa | 0 mm | - | 282 W/m² | - |
| 1777755188 | 13.89° C | 46% | 1011.8 hPa | 0 mm | - | 316 W/m² | - |
| 1777754886 | 13.89° C | 42% | 1011.6 hPa | 0 mm | - | 267 W/m² | - |
| 1777754583 | 15° C | 40% | 1011.6 hPa | 0 mm | - | 299 W/m² | - |
* Rain latest hour (hover to see other rain measurements)
** Current wind speed in m/s (hover to see current wind gust speed)